createdAt,value
2019-05-12T00:00:28.570Z,0
2019-05-12T00:01:29.604Z,0
2019-05-12T00:02:28.858Z,0
2019-05-12T00:03:29.891Z,0
2019-05-12T00:04:29.858Z,0
2019-05-12T00:05:30.270Z,0
2019-05-12T00:06:30.672Z,0
2019-05-12T00:07:30.775Z,0
2019-05-12T00:08:33.496Z,0
2019-05-12T00:09:33.795Z,0
2019-05-12T00:10:34.068Z,0
2019-05-12T00:11:34.252Z,0
2019-05-12T00:12:34.407Z,0
2019-05-12T00:13:34.513Z,0
2019-05-12T00:14:34.618Z,0
2019-05-12T00:15:38.747Z,0
2019-05-12T00:16:35.160Z,0
2019-05-12T00:17:35.847Z,0
2019-05-12T00:18:37.736Z,0
2019-05-12T00:19:39.079Z,0
2019-05-12T00:20:39.080Z,0
2019-05-12T00:21:45.170Z,0
2019-05-12T00:22:39.934Z,0
2019-05-12T00:23:43.930Z,0
2019-05-12T00:24:39.333Z,0
2019-05-12T00:25:39.448Z,0
2019-05-12T00:26:39.561Z,0
2019-05-12T00:27:39.953Z,0
2019-05-12T00:28:40.069Z,0
2019-05-12T00:29:40.993Z,0
2019-05-12T00:30:44.385Z,0
2019-05-12T00:31:43.719Z,0
2019-05-12T00:32:44.667Z,0
2019-05-12T00:33:43.997Z,0
2019-05-12T00:34:43.999Z,0
2019-05-12T00:35:44.410Z,0
2019-05-12T00:36:44.811Z,0
2019-05-12T00:37:45.201Z,0
2019-05-12T00:38:45.887Z,0
2019-05-12T00:39:47.806Z,0
2019-05-12T00:40:49.726Z,0
2019-05-12T00:41:50.077Z,0
2019-05-12T00:42:49.125Z,0
2019-05-12T00:43:48.901Z,0
2019-05-12T00:44:50.070Z,0
2019-05-12T00:45:50.078Z,0
2019-05-12T00:46:50.182Z,0
2019-05-12T00:47:53.729Z,0
2019-05-12T00:48:53.363Z,0
2019-05-12T00:49:55.544Z,0
2019-05-12T00:50:54.080Z,0
2019-05-12T00:51:54.624Z,0
2019-05-12T00:52:54.638Z,0
2019-05-12T00:53:54.175Z,0
2019-05-12T00:54:54.592Z,0
2019-05-12T00:55:55.283Z,0
2019-05-12T00:56:55.395Z,0
2019-05-12T00:57:57.869Z,0
2019-05-12T00:58:57.991Z,0
2019-05-12T00:59:59.094Z,0
2019-05-12T01:00:59.640Z,0
2019-05-12T01:01:58.841Z,0
2019-05-12T01:02:59.547Z,0
2019-05-12T01:03:59.332Z,0
2019-05-12T01:04:59.399Z,0
2019-05-12T01:05:59.306Z,0
2019-05-12T01:07:04.297Z,0
2019-05-12T01:08:04.180Z,0
2019-05-12T01:09:03.632Z,0
2019-05-12T01:10:08.746Z,0
2019-05-12T01:11:03.846Z,0
2019-05-12T01:12:04.329Z,0
2019-05-12T01:13:04.251Z,0
2019-05-12T01:14:04.652Z,0
2019-05-12T01:15:05.038Z,0
2019-05-12T01:16:07.940Z,0
2019-05-12T01:17:05.760Z,0
2019-05-12T01:18:06.156Z,0
2019-05-12T01:19:09.498Z,0
2019-05-12T01:20:09.378Z,0
2019-05-12T01:21:09.628Z,0
2019-05-12T01:22:09.376Z,0
2019-05-12T01:23:09.500Z,0
2019-05-12T01:24:14.595Z,0
2019-05-12T01:25:10.716Z,0
2019-05-12T01:26:14.416Z,0
2019-05-12T01:27:14.406Z,0
2019-05-12T01:28:14.127Z,0
2019-05-12T01:29:14.822Z,0
2019-05-12T01:30:14.938Z,0
2019-05-12T01:31:17.862Z,0
2019-05-12T01:32:18.439Z,0
2019-05-12T01:33:19.363Z,0
2019-05-12T01:34:18.777Z,0
2019-05-12T01:35:19.086Z,0
2019-05-12T01:36:19.214Z,0
2019-05-12T01:37:18.620Z,0
2019-05-12T01:38:19.039Z,0
2019-05-12T01:39:19.482Z,0
2019-05-12T01:40:20.486Z,0
2019-05-12T01:41:23.109Z,0
2019-05-12T01:42:23.766Z,0
2019-05-12T01:43:27.730Z,0
2019-05-12T01:44:23.910Z,0
2019-05-12T01:45:23.828Z,0
2019-05-12T01:46:23.618Z,0
2019-05-12T01:47:24.438Z,0
2019-05-12T01:48:25.139Z,0
2019-05-12T01:49:25.576Z,0
2019-05-12T01:50:28.037Z,0
2019-05-12T01:51:28.956Z,0
2019-05-12T01:52:28.673Z,0
2019-05-12T01:53:28.884Z,0
2019-05-12T01:54:29.535Z,0
2019-05-12T01:55:29.571Z,0
2019-05-12T01:56:29.975Z,0
2019-05-12T01:57:30.689Z,0
2019-05-12T01:58:32.989Z,0
2019-05-12T01:59:31.112Z,0
2019-05-12T02:00:34.202Z,0
2019-05-12T02:01:34.199Z,0
2019-05-12T02:02:34.334Z,0
2019-05-12T02:03:33.892Z,0
2019-05-12T02:04:33.907Z,0
2019-05-12T02:05:34.021Z,0
2019-05-12T02:06:34.716Z,0
2019-05-12T02:07:35.425Z,0
2019-05-12T02:08:35.540Z,0
2019-05-12T02:09:38.663Z,0
2019-05-12T02:10:38.733Z,0
2019-05-12T02:11:37.962Z,0
2019-05-12T02:12:39.733Z,0
2019-05-12T02:13:38.394Z,0
2019-05-12T02:14:39.094Z,0
2019-05-12T02:15:39.201Z,0
2019-05-12T02:16:39.881Z,0
2019-05-12T02:17:40.267Z,0
2019-05-12T02:18:43.364Z,0
2019-05-12T02:19:43.959Z,0
2019-05-12T02:20:43.765Z,0
2019-05-12T02:21:44.425Z,0
2019-05-12T02:22:44.830Z,0
2019-05-12T02:23:44.936Z,0
2019-05-12T02:24:45.339Z,0
2019-05-12T02:25:45.443Z,0
2019-05-12T02:26:48.492Z,0
2019-05-12T02:27:47.619Z,0
2019-05-12T02:28:50.315Z,0
2019-05-12T02:29:49.472Z,0
2019-05-12T02:30:58.729Z,0
2019-05-12T02:31:51.249Z,0
2019-05-12T02:33:05.408Z,0
2019-05-12T02:33:50.858Z,0
2019-05-12T02:34:54.740Z,0
2019-05-12T02:35:55.726Z,0
2019-05-12T02:36:56.210Z,0
2019-05-12T02:37:56.454Z,0
2019-05-12T02:38:56.851Z,0
2019-05-12T02:39:56.224Z,0
2019-05-12T02:40:55.664Z,0
2019-05-12T02:41:56.197Z,0
2019-05-12T02:43:00.911Z,0
2019-05-12T02:44:00.859Z,0
2019-05-12T02:45:00.378Z,0
2019-05-12T02:46:00.219Z,0
2019-05-12T02:47:00.715Z,0
2019-05-12T02:48:00.091Z,0
2019-05-12T02:49:00.172Z,0
2019-05-12T02:50:00.239Z,0
2019-05-12T02:51:00.644Z,0
2019-05-12T02:52:00.570Z,0
2019-05-12T02:53:01.264Z,0
2019-05-12T02:54:05.953Z,0
2019-05-12T02:55:14.902Z,0
2019-05-12T02:56:05.359Z,0
2019-05-12T02:57:05.768Z,0
2019-05-12T02:58:06.627Z,0
2019-05-12T02:59:05.970Z,0
2019-05-12T03:00:06.240Z,0
2019-05-12T03:01:10.520Z,0
2019-05-12T03:02:10.689Z,0
2019-05-12T03:03:14.367Z,0
2019-05-12T03:04:13.766Z,0
2019-05-12T03:05:14.483Z,0
2019-05-12T03:06:10.984Z,0
2019-05-12T03:07:20.723Z,0
2019-05-12T03:08:11.080Z,0
2019-05-12T03:09:10.778Z,0
2019-05-12T03:10:14.284Z,0
2019-05-12T03:11:14.743Z,0
2019-05-12T03:12:14.384Z,0
2019-05-12T03:13:15.122Z,0
2019-05-12T03:14:15.559Z,0
2019-05-12T03:15:20.570Z,0
2019-05-12T03:16:15.951Z,0
2019-05-12T03:17:15.479Z,0
2019-05-12T03:18:20.360Z,0
2019-05-12T03:19:20.216Z,0
2019-05-12T03:20:20.751Z,0
2019-05-12T03:21:20.351Z,0
2019-05-12T03:22:19.678Z,0
2019-05-12T03:23:25.125Z,0
2019-05-12T03:24:24.882Z,0
2019-05-12T03:25:36.764Z,0
2019-05-12T03:26:24.198Z,0
2019-05-12T03:27:25.489Z,4
2019-05-12T03:28:24.991Z,4
2019-05-12T03:29:21.121Z,4
2019-05-12T03:30:28.862Z,0
2019-05-12T03:31:39.585Z,0
2019-05-12T03:32:37.655Z,0
2019-05-12T03:33:52.361Z,4
2019-05-12T03:34:38.099Z,4
2019-05-12T03:36:08.765Z,4
2019-05-12T03:36:58.689Z,4
2019-05-12T03:37:45.202Z,4
2019-05-12T03:38:44.685Z,4
2019-05-12T03:39:39.798Z,4
2019-05-12T03:40:44.969Z,4
2019-05-12T03:41:40.300Z,8
2019-05-12T03:42:44.070Z,4
2019-05-12T03:43:44.430Z,4
2019-05-12T03:44:40.714Z,8
2019-05-12T03:45:44.941Z,8
2019-05-12T03:46:41.342Z,8
2019-05-12T03:47:45.039Z,12
2019-05-12T03:48:40.883Z,12
2019-05-12T03:49:40.903Z,12
2019-05-12T03:50:45.633Z,12
2019-05-12T03:51:45.872Z,12
2019-05-12T03:52:45.804Z,16
2019-05-12T03:53:46.207Z,16
2019-05-12T03:54:46.166Z,16
2019-05-12T03:55:55.197Z,16
2019-05-12T03:56:45.269Z,20
2019-05-12T03:57:45.376Z,20
2019-05-12T03:58:45.917Z,24
2019-05-12T03:59:46.650Z,24
2019-05-12T04:00:50.828Z,24
2019-05-12T04:01:50.951Z,28
2019-05-12T04:02:51.483Z,28
2019-05-12T04:03:53.980Z,32
2019-05-12T04:04:51.149Z,28
2019-05-12T04:05:51.147Z,32
2019-05-12T04:06:54.049Z,32
2019-05-12T04:07:54.323Z,28
2019-05-12T04:08:54.614Z,36
2019-05-12T04:09:56.278Z,36
2019-05-12T04:10:59.957Z,40
2019-05-12T04:11:55.141Z,40
2019-05-12T04:12:55.572Z,40
2019-05-12T04:13:56.182Z,44
2019-05-12T04:14:55.660Z,48
2019-05-12T04:16:00.881Z,52
2019-05-12T04:16:56.554Z,56
2019-05-12T04:17:59.830Z,60
2019-05-12T04:19:00.902Z,60
2019-05-12T04:20:00.506Z,64
2019-05-12T04:21:00.043Z,64
2019-05-12T04:22:00.209Z,68
2019-05-12T04:23:00.800Z,72
2019-05-12T04:24:04.874Z,72
2019-05-12T04:25:05.049Z,72
2019-05-12T04:26:24.877Z,72
2019-05-12T04:27:05.702Z,68
2019-05-12T04:28:05.175Z,76
2019-05-12T04:29:06.465Z,76
2019-05-12T04:30:05.845Z,84
2019-05-12T04:31:05.741Z,92
2019-05-12T04:32:07.041Z,96
2019-05-12T04:33:10.937Z,100
2019-05-12T04:34:14.482Z,100
2019-05-12T04:35:10.889Z,104
2019-05-12T04:36:14.460Z,108
2019-05-12T04:37:10.368Z,112
2019-05-12T04:38:14.637Z,124
2019-05-12T04:39:14.656Z,128
2019-05-12T04:40:15.987Z,144
2019-05-12T04:41:20.515Z,136
2019-05-12T04:42:16.295Z,144
2019-05-12T04:43:20.396Z,144
2019-05-12T04:44:20.928Z,148
2019-05-12T04:45:16.342Z,152
2019-05-12T04:46:19.964Z,160
2019-05-12T04:47:20.466Z,160
2019-05-12T04:48:26.570Z,164
2019-05-12T04:49:24.535Z,172
2019-05-12T04:50:24.121Z,172
2019-05-12T04:51:21.238Z,164
2019-05-12T04:52:24.499Z,168
2019-05-12T04:53:21.016Z,172
2019-05-12T04:54:23.819Z,180
2019-05-12T04:55:25.140Z,184
2019-05-12T04:56:31.098Z,188
2019-05-12T04:57:30.763Z,196
2019-05-12T04:58:30.853Z,204
2019-05-12T04:59:26.485Z,204
2019-05-12T05:00:30.765Z,216
2019-05-12T05:01:26.806Z,220
2019-05-12T05:02:30.675Z,224
2019-05-12T05:03:30.845Z,236
2019-05-12T05:04:30.182Z,248
2019-05-12T05:05:30.404Z,256
2019-05-12T05:06:33.861Z,268
2019-05-12T05:07:30.901Z,284
2019-05-12T05:08:34.537Z,292
2019-05-12T05:09:31.583Z,292
2019-05-12T05:10:35.614Z,300
2019-05-12T05:11:35.992Z,312
2019-05-12T05:12:35.219Z,336
2019-05-12T05:13:39.369Z,336
2019-05-12T05:14:35.770Z,336
2019-05-12T05:15:36.040Z,332
2019-05-12T05:16:35.649Z,328
2019-05-12T05:17:35.769Z,340
2019-05-12T05:18:36.277Z,356
2019-05-12T05:19:39.514Z,344
2019-05-12T05:20:40.384Z,308
2019-05-12T05:21:40.029Z,308
2019-05-12T05:22:39.150Z,280
2019-05-12T05:23:40.083Z,268
2019-05-12T05:24:40.504Z,284
2019-05-12T05:25:40.622Z,276
2019-05-12T05:26:45.814Z,264
2019-05-12T05:27:41.503Z,264
2019-05-12T05:28:43.485Z,268
2019-05-12T05:29:45.111Z,268
2019-05-12T05:30:44.801Z,268
2019-05-12T05:31:44.623Z,268
2019-05-12T05:32:44.870Z,280
2019-05-12T05:33:45.055Z,280
2019-05-12T05:34:52.788Z,292
2019-05-12T05:35:50.523Z,332
2019-05-12T05:36:45.929Z,368
2019-05-12T05:37:51.027Z,380
2019-05-12T05:38:50.904Z,376
2019-05-12T05:39:59.468Z,376
2019-05-12T05:40:49.295Z,380
2019-05-12T05:41:59.250Z,412
2019-05-12T05:42:49.636Z,412
2019-05-12T05:44:03.067Z,440
2019-05-12T05:44:54.174Z,456
2019-05-12T05:46:13.757Z,496
2019-05-12T05:47:04.344Z,516
2019-05-12T05:47:59.461Z,540
2019-05-12T05:48:55.049Z,564
2019-05-12T05:49:54.174Z,580
2019-05-12T05:50:54.859Z,588
2019-05-12T05:52:03.512Z,592
2019-05-12T05:52:55.761Z,584
2019-05-12T05:54:03.686Z,588
2019-05-12T05:54:58.915Z,592
2019-05-12T05:56:05.717Z,608
2019-05-12T05:57:11.585Z,608
2019-05-12T05:57:59.732Z,600
2019-05-12T05:59:04.477Z,620
2019-05-12T05:59:59.897Z,640
2019-05-12T06:01:14.076Z,648
2019-05-12T06:02:05.525Z,652
2019-05-12T06:03:05.139Z,652
2019-05-12T06:04:19.698Z,652
2019-05-12T06:05:10.679Z,660
2019-05-12T06:06:20.811Z,684
2019-05-12T06:07:11.481Z,700
2019-05-12T06:08:25.261Z,696
2019-05-12T06:09:14.961Z,684
2019-05-12T06:10:15.055Z,668
2019-05-12T06:11:34.487Z,664
2019-05-12T06:12:20.454Z,692
2019-05-12T06:13:16.145Z,712
2019-05-12T06:14:29.533Z,744
2019-05-12T06:15:24.655Z,744
2019-05-12T06:16:34.031Z,760
2019-05-12T06:17:28.796Z,768
2019-05-12T06:18:29.703Z,768
2019-05-12T06:19:31.545Z,796
2019-05-12T06:20:29.253Z,788
2019-05-12T06:21:38.120Z,788
2019-05-12T06:22:29.806Z,752
2019-05-12T06:23:40.125Z,788
2019-05-12T06:24:33.415Z,840
2019-05-12T06:25:56.623Z,872
2019-05-12T06:26:54.458Z,872
2019-05-12T06:27:41.558Z,864
2019-05-12T06:28:45.236Z,876
2019-05-12T06:29:38.511Z,844
2019-05-12T06:30:43.730Z,836
2019-05-12T06:31:40.346Z,868
2019-05-12T06:32:36.076Z,924
2019-05-12T06:33:44.426Z,916
2019-05-12T06:34:35.897Z,920
2019-05-12T06:35:45.254Z,920
2019-05-12T06:36:39.784Z,932
2019-05-12T06:37:39.021Z,952
2019-05-12T06:38:45.795Z,964
2019-05-12T06:39:39.489Z,988
2019-05-12T06:40:49.917Z,1012
2019-05-12T06:41:39.192Z,1008
2019-05-12T06:42:39.678Z,1012
2019-05-12T06:43:49.874Z,1060
2019-05-12T06:44:39.817Z,1068
2019-05-12T06:45:51.389Z,1112
2019-05-12T06:46:40.776Z,1132
2019-05-12T06:47:56.051Z,1168
2019-05-12T06:48:50.649Z,1180
2019-05-12T06:49:48.716Z,1180
2019-05-12T06:50:50.212Z,1212
2019-05-12T06:51:44.617Z,1244
2019-05-12T06:52:54.674Z,1280
2019-05-12T06:53:45.069Z,1292
2019-05-12T06:55:00.097Z,1308
2019-05-12T06:55:49.928Z,1300
2019-05-12T06:56:49.949Z,1300
2019-05-12T06:57:55.908Z,1328
2019-05-12T06:58:49.731Z,1320
2019-05-12T07:00:00.227Z,1304
2019-05-12T07:00:49.622Z,1344
2019-05-12T07:02:00.292Z,1352
2019-05-12T07:03:00.884Z,1376
2019-05-12T07:03:53.357Z,1408
2019-05-12T07:05:04.868Z,1436
2019-05-12T07:05:55.683Z,1400
2019-05-12T07:07:05.756Z,1412
2019-05-12T07:07:59.202Z,1456
2019-05-12T07:09:24.093Z,1424
2019-05-12T07:10:42.348Z,1516
2019-05-12T07:11:20.312Z,1564
2019-05-12T07:12:19.272Z,1588
2019-05-12T07:13:34.215Z,1628
2019-05-12T07:14:34.497Z,1684
2019-05-12T07:15:23.337Z,1716
2019-05-12T07:16:36.032Z,1772
2019-05-12T07:17:25.452Z,1796
2019-05-12T07:18:37.681Z,1792
2019-05-12T07:19:33.560Z,1788
2019-05-12T07:20:29.062Z,1732
2019-05-12T07:21:33.588Z,1764
2019-05-12T07:22:49.155Z,1764
2019-05-12T07:23:35.735Z,1788
2019-05-12T07:24:29.405Z,1772
2019-05-12T07:25:44.420Z,1840
2019-05-12T07:26:30.709Z,1852
2019-05-12T07:28:07.710Z,1848
2019-05-12T07:28:35.440Z,1840
2019-05-12T07:29:30.914Z,1816
2019-05-12T07:30:32.534Z,1832
2019-05-12T07:31:31.176Z,1888
2019-05-12T07:32:34.704Z,1900
2019-05-12T07:33:50.690Z,1896
2019-05-12T07:34:34.696Z,1836
2019-05-12T07:35:34.710Z,1808
2019-05-12T07:36:34.995Z,1796
2019-05-12T07:37:35.559Z,1868
2019-05-12T07:38:39.447Z,1892
2019-05-12T07:39:49.053Z,1940
2019-05-12T07:40:44.375Z,1960
2019-05-12T07:41:42.155Z,1980
2019-05-12T07:42:45.027Z,1996
2019-05-12T07:43:39.445Z,2016
2019-05-12T07:44:49.882Z,2064
2019-05-12T07:45:39.912Z,2020
2019-05-12T07:46:54.049Z,2100
2019-05-12T07:47:40.964Z,2148
2019-05-12T07:48:54.353Z,2136
2019-05-12T07:49:49.603Z,2188
2019-05-12T07:50:43.286Z,2144
2019-05-12T07:51:50.766Z,2140
2019-05-12T07:52:44.736Z,2112
2019-05-12T07:53:46.679Z,2080
2019-05-12T07:54:53.580Z,2120
2019-05-12T07:55:55.181Z,2088
2019-05-12T07:56:49.922Z,2004
2019-05-12T07:58:19.593Z,2144
2019-05-12T07:59:04.301Z,2052
2019-05-12T07:59:54.015Z,1984
2019-05-12T08:00:53.760Z,1992
2019-05-12T08:02:03.724Z,2000
2019-05-12T08:02:50.275Z,1960
2019-05-12T08:03:50.888Z,1928
2019-05-12T08:04:54.061Z,1928
2019-05-12T08:05:56.127Z,1872
2019-05-12T08:06:55.454Z,1904
2019-05-12T08:08:00.513Z,1864
2019-05-12T08:09:04.519Z,1812
2019-05-12T08:09:53.881Z,1792
2019-05-12T08:11:01.120Z,1788
2019-05-12T08:11:54.837Z,1820
2019-05-12T08:13:04.858Z,1848
2019-05-12T08:13:55.336Z,1980
2019-05-12T08:14:59.276Z,2004
2019-05-12T08:16:09.357Z,2060
2019-05-12T08:17:19.678Z,2116
2019-05-12T08:18:13.975Z,2128
2019-05-12T08:19:04.550Z,2148
2019-05-12T08:20:04.842Z,2116
2019-05-12T08:21:05.658Z,2028
2019-05-12T08:22:06.912Z,2032
2019-05-12T08:23:16.297Z,1952
2019-05-12T08:24:09.612Z,1804
2019-05-12T08:25:09.679Z,1848
2019-05-12T08:26:24.723Z,1712
2019-05-12T08:27:19.778Z,1700
2019-05-12T08:28:45.701Z,1748
2019-05-12T08:29:24.212Z,1692
2019-05-12T08:30:14.066Z,1668
2019-05-12T08:31:14.564Z,1756
2019-05-12T08:32:24.458Z,1644
2019-05-12T08:33:20.709Z,1640
2019-05-12T08:34:15.673Z,1744
2019-05-12T08:35:26.107Z,1776
2019-05-12T08:36:29.402Z,1800
2019-05-12T08:37:29.827Z,1824
2019-05-12T08:38:30.654Z,1772
2019-05-12T08:39:34.046Z,1808
2019-05-12T08:40:30.273Z,1732
2019-05-12T08:41:29.271Z,1848
2019-05-12T08:42:29.443Z,1852
2019-05-12T08:43:30.015Z,1804
2019-05-12T08:44:46.191Z,1740
2019-05-12T08:45:44.292Z,1900
2019-05-12T08:46:31.400Z,1912
2019-05-12T08:47:44.515Z,1824
2019-05-12T08:48:36.036Z,1916
2019-05-12T08:50:00.692Z,2120
2019-05-12T08:50:45.862Z,2208
2019-05-12T08:51:35.983Z,2024
2019-05-12T08:52:44.146Z,1980
2019-05-12T08:53:39.351Z,2060
2019-05-12T08:54:39.542Z,2112
2019-05-12T08:55:43.631Z,2164
2019-05-12T08:56:39.321Z,2112
2019-05-12T08:57:54.266Z,2072
2019-05-12T08:58:59.084Z,2244
2019-05-12T08:59:39.662Z,2284
2019-05-12T09:00:50.721Z,2364
2019-05-12T09:01:43.685Z,2364
2019-05-12T09:02:45.904Z,2320
2019-05-12T09:03:44.081Z,2104
2019-05-12T09:04:42.953Z,1940
2019-05-12T09:05:50.097Z,1784
2019-05-12T09:06:45.167Z,1672
2019-05-12T09:07:49.114Z,1856
2019-05-12T09:08:55.320Z,1852
2019-05-12T09:09:44.743Z,1744
2019-05-12T09:10:45.445Z,1776
2019-05-12T09:11:45.372Z,1880
2019-05-12T09:12:45.819Z,2040
2019-05-12T09:13:52.337Z,2060
2019-05-12T09:14:54.564Z,2048
2019-05-12T09:15:49.224Z,2188
2019-05-12T09:16:53.531Z,2180
2019-05-12T09:18:04.639Z,2128
2019-05-12T09:18:50.287Z,2160
2019-05-12T09:19:54.780Z,2176
2019-05-12T09:21:03.717Z,2200
2019-05-12T09:21:51.011Z,2048
2019-05-12T09:22:52.641Z,2068
2019-05-12T09:23:56.042Z,2208
2019-05-12T09:24:58.312Z,2176
2019-05-12T09:26:04.089Z,2236
2019-05-12T09:26:58.880Z,2300
2019-05-12T09:27:56.250Z,2368
2019-05-12T09:29:03.288Z,2404
2019-05-12T09:30:04.585Z,2564
2019-05-12T09:31:00.379Z,2744
2019-05-12T09:31:59.116Z,2716
2019-05-12T09:33:03.705Z,2476
2019-05-12T09:34:03.388Z,2656
2019-05-12T09:35:04.118Z,2444
2019-05-12T09:36:00.848Z,2424
2019-05-12T09:37:10.229Z,2348
2019-05-12T09:38:06.037Z,2520
2019-05-12T09:39:11.519Z,2652
2019-05-12T09:40:04.742Z,2404
2019-05-12T09:41:13.678Z,2368
2019-05-12T09:42:06.345Z,2360
2019-05-12T09:43:18.930Z,2632
2019-05-12T09:44:10.155Z,2692
2019-05-12T09:45:15.987Z,2740
2019-05-12T09:46:10.055Z,2816
2019-05-12T09:47:27.899Z,2772
2019-05-12T09:48:19.891Z,2704
2019-05-12T09:49:11.289Z,2712
2019-05-12T09:50:23.496Z,2604
2019-05-12T09:51:17.225Z,2588
2019-05-12T09:52:33.325Z,2840
2019-05-12T09:53:20.468Z,2932
2019-05-12T09:54:15.814Z,3052
2019-05-12T09:55:15.793Z,2964
2019-05-12T09:56:15.195Z,3000
2019-05-12T09:57:15.068Z,2908
2019-05-12T09:58:33.675Z,2792
2019-05-12T09:59:33.484Z,2628
2019-05-12T10:00:19.423Z,2556
2019-05-12T10:01:19.509Z,2436
2019-05-12T10:02:28.996Z,2524
2019-05-12T10:03:19.822Z,2520
2019-05-12T10:04:25.569Z,2280
2019-05-12T10:05:21.296Z,2316
2019-05-12T10:06:26.921Z,2392
2019-05-12T10:07:22.149Z,2460
2019-05-12T10:08:29.188Z,2592
2019-05-12T10:09:30.289Z,2592
2019-05-12T10:10:28.996Z,2556
2019-05-12T10:11:30.173Z,2660
2019-05-12T10:12:25.858Z,2764
2019-05-12T10:13:35.348Z,2608
2019-05-12T10:14:25.739Z,2708
2019-05-12T10:15:34.108Z,2584
2019-05-12T10:16:26.546Z,2564
2019-05-12T10:17:36.235Z,2484
2019-05-12T10:18:29.851Z,2440
2019-05-12T10:19:29.020Z,2312
2019-05-12T10:20:39.433Z,2064
2019-05-12T10:21:29.610Z,1896
2019-05-12T10:22:34.945Z,1872
2019-05-12T10:23:35.721Z,1728
2019-05-12T10:24:32.351Z,1684
2019-05-12T10:25:36.103Z,1908
2019-05-12T10:26:34.224Z,1968
2019-05-12T10:27:44.056Z,2120
2019-05-12T10:28:34.578Z,2024
2019-05-12T10:29:37.814Z,1924
2019-05-12T10:30:35.041Z,1872
2019-05-12T10:31:44.921Z,1868
2019-05-12T10:32:36.343Z,1864
2019-05-12T10:33:39.275Z,1868
2019-05-12T10:34:46.034Z,1804
2019-05-12T10:35:40.953Z,1656
2019-05-12T10:36:48.783Z,1464
2019-05-12T10:37:43.370Z,1476
2019-05-12T10:38:43.262Z,1640
2019-05-12T10:39:44.062Z,1632
2019-05-12T10:40:47.842Z,1528
2019-05-12T10:41:45.388Z,1548
2019-05-12T10:42:54.789Z,1596
2019-05-12T10:43:48.318Z,1628
2019-05-12T10:44:54.262Z,1652
2019-05-12T10:45:45.436Z,1608
2019-05-12T10:46:48.178Z,1624
2019-05-12T10:47:45.951Z,1656
2019-05-12T10:48:46.345Z,1868
2019-05-12T10:49:46.517Z,1952
2019-05-12T10:50:49.995Z,1936
2019-05-12T10:51:53.934Z,1972
2019-05-12T10:52:50.002Z,1884
2019-05-12T10:54:00.005Z,1832
2019-05-12T10:54:48.959Z,1744
2019-05-12T10:55:49.581Z,1688
2019-05-12T10:56:49.996Z,1720
2019-05-12T10:58:01.304Z,1796
2019-05-12T10:58:52.996Z,1844
2019-05-12T10:59:59.133Z,1832
2019-05-12T11:00:53.494Z,1944
2019-05-12T11:01:59.565Z,1972
2019-05-12T11:02:53.456Z,2188
2019-05-12T11:04:03.809Z,2440
2019-05-12T11:04:54.695Z,2496
2019-05-12T11:06:12.228Z,2140
2019-05-12T11:06:59.694Z,1876
2019-05-12T11:07:55.255Z,2088
2019-05-12T11:09:00.900Z,2372
2019-05-12T11:09:55.890Z,2300
2019-05-12T11:11:09.297Z,2092
2019-05-12T11:11:59.801Z,1960
2019-05-12T11:12:59.060Z,1920
2019-05-12T11:14:03.786Z,2144
2019-05-12T11:15:01.117Z,2360
2019-05-12T11:16:00.698Z,2580
2019-05-12T11:17:06.842Z,2640
2019-05-12T11:18:01.288Z,2592
2019-05-12T11:19:14.010Z,2388
2019-05-12T11:20:04.763Z,2536
2019-05-12T11:21:05.095Z,2700
2019-05-12T11:22:04.667Z,3032
2019-05-12T11:23:05.244Z,3056
2019-05-12T11:24:05.636Z,2952
2019-05-12T11:25:09.710Z,3036
2019-05-12T11:26:06.394Z,3112
2019-05-12T11:27:06.515Z,3104
2019-05-12T11:28:09.284Z,3176
2019-05-12T11:29:09.837Z,3552
2019-05-12T11:30:10.349Z,3916
2019-05-12T11:31:08.473Z,3860
2019-05-12T11:32:09.169Z,3844
2019-05-12T11:33:10.824Z,3660
2019-05-12T11:34:11.007Z,3568
2019-05-12T11:35:10.711Z,3560
2019-05-12T11:36:10.824Z,3652
2019-05-12T11:37:10.999Z,3544
2019-05-12T11:38:13.371Z,3436
2019-05-12T11:39:14.336Z,3240
2019-05-12T11:40:15.006Z,3012
2019-05-12T11:41:21.809Z,2920
2019-05-12T11:42:15.002Z,3068
2019-05-12T11:43:16.009Z,3096
2019-05-12T11:44:18.941Z,2844
2019-05-12T11:45:19.129Z,2540
2019-05-12T11:46:17.546Z,2240
2019-05-12T11:47:33.275Z,2024
2019-05-12T11:48:23.540Z,2000
2019-05-12T11:49:33.687Z,2060
2019-05-12T11:50:24.135Z,2120
2019-05-12T11:51:34.363Z,2184
2019-05-12T11:52:29.691Z,2120
2019-05-12T11:53:36.495Z,2032
2019-05-12T11:54:27.983Z,2092
2019-05-12T11:55:37.074Z,1988
2019-05-12T11:56:30.034Z,1884
2019-05-12T11:57:35.664Z,1784
2019-05-12T11:58:28.968Z,1824
2019-05-12T11:59:29.227Z,1832
2019-05-12T12:00:29.917Z,1812
2019-05-12T12:01:29.790Z,1972
2019-05-12T12:02:36.385Z,2040
2019-05-12T12:03:33.292Z,2216
2019-05-12T12:04:34.163Z,2276
2019-05-12T12:05:34.506Z,2108
2019-05-12T12:06:34.771Z,2008
2019-05-12T12:07:38.835Z,2028
2019-05-12T12:08:49.710Z,1980
2019-05-12T12:09:59.239Z,1932
2019-05-12T12:10:54.834Z,1908
2019-05-12T12:11:54.538Z,1944
2019-05-12T12:12:59.426Z,1900
2019-05-12T12:13:53.542Z,1812
2019-05-12T12:15:00.141Z,1712
2019-05-12T12:15:53.558Z,1660
2019-05-12T12:17:01.177Z,1672
2019-05-12T12:17:55.171Z,1680
2019-05-12T12:19:16.574Z,1488
2019-05-12T12:20:28.267Z,1420
2019-05-12T12:21:19.666Z,1412
2019-05-12T12:22:15.062Z,1368
2019-05-12T12:23:22.170Z,1312
2019-05-12T12:24:21.218Z,1308
2019-05-12T12:25:23.357Z,1328
2019-05-12T12:26:20.019Z,1284
2019-05-12T12:27:19.993Z,1368
2019-05-12T12:28:19.485Z,1500
2019-05-12T12:29:19.732Z,1572
2019-05-12T12:30:29.720Z,1396
2019-05-12T12:31:23.349Z,1268
2019-05-12T12:32:30.136Z,1168
2019-05-12T12:33:25.327Z,1168
2019-05-12T12:34:38.355Z,1264
2019-05-12T12:35:28.504Z,1284
2019-05-12T12:36:29.135Z,1232
2019-05-12T12:37:32.703Z,1240
2019-05-12T12:38:25.582Z,1300
2019-05-12T12:39:28.965Z,1280
2019-05-12T12:40:28.798Z,1188
2019-05-12T12:41:29.692Z,1196
2019-05-12T12:42:30.238Z,1248
2019-05-12T12:43:30.364Z,1312
2019-05-12T12:44:29.676Z,1364
2019-05-12T12:45:30.251Z,1376
2019-05-12T12:46:33.775Z,1476
2019-05-12T12:47:29.984Z,1508
2019-05-12T12:48:39.184Z,1504
2019-05-12T12:49:34.974Z,1476
2019-05-12T12:50:40.043Z,1448
2019-05-12T12:51:34.855Z,1404
2019-05-12T12:52:38.608Z,1420
2019-05-12T12:53:35.068Z,1436
2019-05-12T12:54:34.477Z,1408
2019-05-12T12:55:37.902Z,1328
2019-05-12T12:56:40.887Z,1304
2019-05-12T12:57:35.280Z,1244
2019-05-12T12:58:40.408Z,1152
2019-05-12T12:59:42.740Z,1100
2019-05-12T13:00:58.955Z,1064
2019-05-12T13:01:43.748Z,1088
2019-05-12T13:02:44.949Z,1088
2019-05-12T13:03:43.388Z,1104
2019-05-12T13:04:53.714Z,1148
2019-05-12T13:05:40.835Z,1244
2019-05-12T13:06:40.962Z,1352
2019-05-12T13:07:43.932Z,1448
2019-05-12T13:08:44.866Z,1584
2019-05-12T13:09:44.467Z,1656
2019-05-12T13:10:54.948Z,1736
2019-05-12T13:11:45.637Z,1812
2019-05-12T13:12:50.281Z,1880
2019-05-12T13:13:45.746Z,1900
2019-05-12T13:14:49.807Z,1916
2019-05-12T13:15:49.552Z,1900
2019-05-12T13:16:54.198Z,1916
2019-05-12T13:17:52.829Z,1872
2019-05-12T13:18:49.026Z,1984
2019-05-12T13:20:02.290Z,2084
2019-05-12T13:20:50.692Z,2156
2019-05-12T13:21:53.157Z,2152
2019-05-12T13:22:53.600Z,2016
2019-05-12T13:23:53.892Z,1836
2019-05-12T13:24:58.073Z,1680
2019-05-12T13:26:01.364Z,1640
2019-05-12T13:26:54.490Z,1600
2019-05-12T13:27:55.457Z,1656
2019-05-12T13:29:04.130Z,1756
2019-05-12T13:29:56.282Z,1712
2019-05-12T13:31:20.542Z,1600
2019-05-12T13:31:59.363Z,1624
2019-05-12T13:32:58.480Z,1636
2019-05-12T13:34:03.705Z,1524
2019-05-12T13:35:04.172Z,1360
2019-05-12T13:36:04.259Z,1212
2019-05-12T13:37:03.319Z,1172
2019-05-12T13:38:09.091Z,1120
2019-05-12T13:39:02.773Z,1084
2019-05-12T13:40:11.249Z,1040
2019-05-12T13:41:23.614Z,1024
2019-05-12T13:42:15.788Z,980
2019-05-12T13:43:25.176Z,1020
2019-05-12T13:44:14.802Z,996
2019-05-12T13:45:20.907Z,980
2019-05-12T13:46:13.600Z,948
2019-05-12T13:47:14.380Z,1004
2019-05-12T13:48:25.177Z,1080
2019-05-12T13:49:15.595Z,1100
2019-05-12T13:50:31.517Z,1120
2019-05-12T13:51:24.110Z,1072
2019-05-12T13:52:20.112Z,1068
2019-05-12T13:53:21.368Z,1052
2019-05-12T13:54:25.905Z,1036
2019-05-12T13:55:19.327Z,1076
2019-05-12T13:56:24.532Z,1116
2019-05-12T13:57:23.659Z,1148
2019-05-12T13:58:21.974Z,1156